createdAt,value
2023-04-11T00:01:08.045Z,100816.53
2023-04-11T00:03:35.063Z,100812.22
2023-04-11T00:06:01.752Z,100809.66
2023-04-11T00:08:28.266Z,100808.69
2023-04-11T00:10:54.927Z,100814.78
2023-04-11T00:13:21.560Z,100807.06
2023-04-11T00:15:48.091Z,100813.09
2023-04-11T00:18:14.998Z,100801.88
2023-04-11T00:20:41.620Z,100813.13
2023-04-11T00:23:08.777Z,100816.50
2023-04-11T00:25:37.326Z,100792.25
2023-04-11T00:28:04.435Z,100807.91
2023-04-11T00:30:31.047Z,100808.75
2023-04-11T00:32:57.677Z,100804.50
2023-04-11T00:35:24.294Z,100807.97
2023-04-11T00:37:56.074Z,100783.78
2023-04-11T00:40:23.025Z,100810.72
2023-04-11T00:42:49.612Z,100803.00
2023-04-11T00:45:16.221Z,100797.78
2023-04-11T00:47:43.072Z,100816.91
2023-04-11T00:50:09.931Z,100814.31
2023-04-11T00:52:38.006Z,100803.97
2023-04-11T00:55:05.277Z,100813.41
2023-04-11T00:57:32.304Z,100808.31
2023-04-11T01:00:00.399Z,100799.69
2023-04-11T01:02:27.052Z,100803.31
2023-04-11T01:04:54.055Z,100802.38
2023-04-11T01:07:24.597Z,100821.41
2023-04-11T01:09:52.556Z,100817.25
2023-04-11T01:12:21.541Z,100795.50
2023-04-11T01:14:48.485Z,100806.84
2023-04-11T01:17:15.806Z,100810.13
2023-04-11T01:19:42.494Z,100807.69
2023-04-11T01:22:11.222Z,100799.94
2023-04-11T01:24:37.797Z,100811.28
2023-04-11T01:27:04.390Z,100807.94
2023-04-11T01:29:31.670Z,100790.69
2023-04-11T01:31:58.269Z,100818.28
2023-04-11T01:34:29.350Z,100813.03
2023-04-11T01:36:56.148Z,100813.84
2023-04-11T01:39:23.079Z,100824.97
2023-04-11T01:41:50.833Z,100824.97
2023-04-11T01:44:19.167Z,100829.31
2023-04-11T01:46:46.956Z,100821.41
2023-04-11T01:49:18.893Z,100824.19
2023-04-11T01:51:46.033Z,100819.88
2023-04-11T01:54:12.861Z,100824.03
2023-04-11T01:56:39.468Z,100811.88
2023-04-11T01:59:06.150Z,100827.44
2023-04-11T02:04:14.453Z,100848.44
2023-04-11T02:06:41.158Z,100843.19
2023-04-11T02:09:10.625Z,100844.25
2023-04-11T02:11:37.326Z,100844.13
2023-04-11T02:14:04.042Z,100847.63
2023-04-11T02:16:33.803Z,100826.03
2023-04-11T02:19:00.529Z,100847.53
2023-04-11T02:21:29.388Z,100857.03
2023-04-11T02:23:56.034Z,100837.19
2023-04-11T02:26:22.831Z,100867.34
2023-04-11T02:28:49.436Z,100862.00
2023-04-11T02:31:16.120Z,100850.72
2023-04-11T02:33:42.799Z,100844.00
2023-04-11T02:36:09.454Z,100850.13
2023-04-11T02:38:37.680Z,100858.72
2023-04-11T02:41:04.923Z,100846.81
2023-04-11T02:43:31.532Z,100829.41
2023-04-11T02:46:09.566Z,100838.81
2023-04-11T02:48:40.476Z,100839.72
2023-04-11T02:51:07.111Z,100831.13
2023-04-11T02:53:33.803Z,100838.88
2023-04-11T02:56:00.690Z,100848.44
2023-04-11T02:58:30.396Z,100851.09
2023-04-11T03:00:57.247Z,100832.91
2023-04-11T03:03:23.928Z,100845.09
2023-04-11T03:05:50.677Z,100819.19
2023-04-11T03:08:17.243Z,100851.06
2023-04-11T03:10:43.896Z,100830.34
2023-04-11T03:13:10.575Z,100871.84
2023-04-11T03:15:37.232Z,100852.72
2023-04-11T03:18:04.204Z,100810.50
2023-04-11T03:20:31.077Z,100830.38
2023-04-11T03:22:57.707Z,100823.50
2023-04-11T03:25:24.298Z,100826.75
2023-04-11T03:27:51.111Z,100877.84
2023-04-11T03:30:17.696Z,100839.50
2023-04-11T03:32:44.400Z,100869.06
2023-04-11T03:35:11.188Z,100832.88
2023-04-11T03:37:37.828Z,100859.59
2023-04-11T03:40:08.502Z,100839.69
2023-04-11T03:42:46.646Z,100872.56
2023-04-11T03:45:13.258Z,100883.91
2023-04-11T03:47:41.751Z,100887.19
2023-04-11T03:50:09.983Z,100845.56
2023-04-11T03:52:37.140Z,100864.78
2023-04-11T03:55:05.488Z,100840.50
2023-04-11T03:57:36.597Z,100824.84
2023-04-11T04:00:06.687Z,100854.88
2023-04-11T04:02:33.716Z,100895.63
2023-04-11T04:05:04.720Z,100847.06
2023-04-11T04:07:40.451Z,100860.88
2023-04-11T04:10:14.277Z,100905.75
2023-04-11T04:12:40.988Z,100849.44
2023-04-11T04:15:08.303Z,100920.38
2023-04-11T04:17:36.580Z,100871.75
2023-04-11T04:20:06.906Z,100920.09
2023-04-11T04:22:34.067Z,100899.41
2023-04-11T04:25:01.866Z,100869.97
2023-04-11T04:27:30.162Z,100886.13
2023-04-11T04:30:04.310Z,100897.19
2023-04-11T04:32:34.859Z,100915.31
2023-04-11T04:35:01.972Z,100884.00
2023-04-11T04:37:34.286Z,100932.25
2023-04-11T04:40:02.383Z,100907.06
2023-04-11T04:42:48.152Z,100931.50
2023-04-11T04:45:15.061Z,100929.50
2023-04-11T04:47:46.685Z,100906.97
2023-04-11T04:50:16.371Z,100938.69
2023-04-11T04:52:49.466Z,100911.63
2023-04-11T04:55:16.315Z,100910.63
2023-04-11T04:57:42.934Z,100939.06
2023-04-11T05:00:11.739Z,100978.88
2023-04-11T05:02:45.767Z,100969.53
2023-04-11T05:05:14.007Z,100978.31
2023-04-11T05:07:41.024Z,100960.91
2023-04-11T05:10:08.185Z,100963.63
2023-04-11T05:12:38.077Z,100925.66
2023-04-11T05:15:14.052Z,100967.31
2023-04-11T05:17:40.844Z,100968.81
2023-04-11T05:20:24.971Z,100983.28
2023-04-11T05:22:59.263Z,100978.00
2023-04-11T05:25:29.132Z,100953.78
2023-04-11T05:27:58.399Z,100985.00
2023-04-11T05:30:36.632Z,100987.28
2023-04-11T05:33:52.921Z,100966.31
2023-04-11T05:36:32.734Z,100980.16
2023-04-11T05:42:12.902Z,101002.94
2023-04-11T05:44:40.569Z,101007.53
2023-04-11T05:47:42.714Z,100977.72
2023-04-11T05:50:11.113Z,100985.00
2023-04-11T05:52:37.810Z,100994.28
2023-04-11T05:55:16.416Z,100984.94
2023-04-11T05:57:50.992Z,101012.41
2023-04-11T06:00:18.417Z,100994.13
2023-04-11T06:02:46.453Z,101019.75
2023-04-11T06:05:13.475Z,101048.56
2023-04-11T06:07:41.412Z,101059.28
2023-04-11T06:10:09.200Z,101047.06
2023-04-11T06:12:36.576Z,101059.81
2023-04-11T06:15:03.413Z,101053.88
2023-04-11T06:17:30.127Z,101057.38
2023-04-11T06:19:57.472Z,101053.38
2023-04-11T06:22:24.564Z,101048.75
2023-04-11T06:24:52.061Z,101058.44
2023-04-11T06:27:18.641Z,101060.75
2023-04-11T06:29:45.198Z,101055.47
2023-04-11T06:32:12.364Z,101061.25
2023-04-11T06:34:39.567Z,101046.69
2023-04-11T06:37:09.717Z,101060.03
2023-04-11T06:39:36.302Z,101069.34
2023-04-11T06:44:51.312Z,101071.69
2023-04-11T06:49:59.392Z,101078.44
2023-04-11T06:58:03.196Z,101081.06
2023-04-11T07:00:29.862Z,101067.97
2023-04-11T07:02:56.812Z,101091.59
2023-04-11T07:05:23.567Z,101102.53
2023-04-11T07:07:50.117Z,101105.16
2023-04-11T07:10:16.776Z,101095.81
2023-04-11T07:12:43.361Z,101117.25
2023-04-11T07:15:10.308Z,101103.84
2023-04-11T07:17:37.000Z,101109.25
2023-04-11T07:20:06.964Z,101112.91
2023-04-11T07:22:33.733Z,101123.41
2023-04-11T07:25:00.405Z,101120.44
2023-04-11T07:27:26.944Z,101106.13
2023-04-11T07:29:53.549Z,101118.56
2023-04-11T07:32:20.138Z,101117.03
2023-04-11T07:34:46.754Z,101124.03
2023-04-11T07:37:13.370Z,101122.38
2023-04-11T07:39:40.809Z,101128.94
2023-04-11T07:42:07.916Z,101131.63
2023-04-11T07:44:34.546Z,101135.88
2023-04-11T07:47:01.120Z,101123.75
2023-04-11T07:49:27.705Z,101133.69
2023-04-11T07:51:54.260Z,101132.25
2023-04-11T07:54:20.838Z,101140.22
2023-04-11T07:56:47.432Z,101149.56
2023-04-11T07:59:16.042Z,101147.94
2023-04-11T08:01:42.904Z,101150.41
2023-04-11T08:04:09.683Z,101153.94
2023-04-11T08:06:36.518Z,101162.81
2023-04-11T08:09:05.526Z,101172.63
2023-04-11T08:11:32.149Z,101166.28
2023-04-11T08:13:58.997Z,101169.97
2023-04-11T08:16:25.945Z,101182.34
2023-04-11T08:18:52.906Z,101156.28
2023-04-11T08:21:19.596Z,101191.41
2023-04-11T08:23:47.550Z,101185.16
2023-04-11T08:26:14.220Z,101185.06
2023-04-11T08:28:42.831Z,101192.81
2023-04-11T08:31:13.049Z,101197.69
2023-04-11T08:33:40.092Z,101203.53
2023-04-11T08:36:10.168Z,101189.47
2023-04-11T08:38:37.324Z,101193.50
2023-04-11T08:41:03.921Z,101185.03
2023-04-11T08:43:34.239Z,101201.53
2023-04-11T08:46:04.918Z,101187.03
2023-04-11T08:48:32.382Z,101198.44
2023-04-11T08:50:59.410Z,101196.94
2023-04-11T08:53:27.256Z,101200.28
2023-04-11T08:55:53.908Z,101201.94
2023-04-11T08:58:20.664Z,101199.34
2023-04-11T09:00:47.201Z,101213.84
2023-04-11T09:03:16.757Z,101211.66
2023-04-11T09:05:49.545Z,101214.63
2023-04-11T09:08:17.132Z,101212.72
2023-04-11T09:10:45.600Z,101208.78
2023-04-11T09:13:25.744Z,101214.44
2023-04-11T09:16:09.429Z,101219.19
2023-04-11T09:18:38.657Z,101215.22
2023-04-11T09:21:10.886Z,101235.41
2023-04-11T09:23:38.031Z,101232.00
2023-04-11T09:26:08.810Z,101230.31
2023-04-11T09:28:44.264Z,101231.50
2023-04-11T09:31:13.255Z,101222.38
2023-04-11T09:33:52.291Z,101217.28
2023-04-11T09:36:21.622Z,101216.22
2023-04-11T09:38:48.317Z,101212.63
2023-04-11T09:41:15.307Z,101222.78
2023-04-11T09:43:53.226Z,101219.84
2023-04-11T09:46:21.320Z,101243.50
2023-04-11T09:48:49.676Z,101236.00
2023-04-11T09:51:28.214Z,101227.00
2023-04-11T09:54:02.301Z,101224.63
2023-04-11T09:56:29.066Z,101219.47
2023-04-11T09:58:58.877Z,101223.88
2023-04-11T10:01:25.706Z,101231.00
2023-04-11T10:03:52.813Z,101224.06
2023-04-11T10:06:31.866Z,101217.06
2023-04-11T10:09:24.955Z,101229.47
2023-04-11T10:11:51.626Z,101243.03
2023-04-11T10:14:47.881Z,101239.69
2023-04-11T10:17:19.795Z,101241.53
2023-04-11T10:19:49.362Z,101236.53
2023-04-11T10:22:41.499Z,101245.75
2023-04-11T10:25:21.639Z,101245.75
2023-04-11T10:28:03.804Z,101253.25
2023-04-11T10:30:39.572Z,101256.47
2023-04-11T10:33:17.590Z,101247.28
2023-04-11T10:36:03.808Z,101257.84
2023-04-11T10:38:49.049Z,101253.78
2023-04-11T10:41:17.577Z,101270.22
2023-04-11T10:43:45.891Z,101256.44
2023-04-11T10:46:23.607Z,101267.69
2023-04-11T10:49:02.129Z,101260.06
2023-04-11T10:51:30.530Z,101261.78
2023-04-11T10:54:00.192Z,101273.78
2023-04-11T10:56:52.239Z,101268.75
2023-04-11T10:59:31.313Z,101261.97
2023-04-11T11:02:02.413Z,101263.56
2023-04-11T11:04:37.328Z,101267.06
2023-04-11T11:07:07.175Z,101272.19
2023-04-11T11:09:34.909Z,101268.72
2023-04-11T11:12:19.684Z,101266.88
2023-04-11T11:14:47.237Z,101280.75
2023-04-11T11:17:16.990Z,101285.84
2023-04-11T11:19:45.169Z,101284.94
2023-04-11T11:22:28.698Z,101269.16
2023-04-11T11:24:55.232Z,101276.97
2023-04-11T11:27:23.750Z,101271.91
2023-04-11T11:29:51.300Z,101282.41
2023-04-11T11:32:28.387Z,101286.69
2023-04-11T11:34:55.643Z,101278.06
2023-04-11T11:37:23.244Z,101284.13
2023-04-11T11:39:50.673Z,101287.72
2023-04-11T11:42:18.161Z,101284.19
2023-04-11T11:44:44.703Z,101282.53
2023-04-11T11:47:15.354Z,101277.41
2023-04-11T11:49:50.934Z,101286.19
2023-04-11T11:52:39.765Z,101286.16
2023-04-11T11:55:11.275Z,101285.97
2023-04-11T11:57:44.453Z,101292.75
2023-04-11T12:00:11.838Z,101294.59
2023-04-11T12:02:39.712Z,101298.06
2023-04-11T12:05:07.812Z,101304.03
2023-04-11T12:07:38.592Z,101298.09
2023-04-11T12:10:11.636Z,101306.66
2023-04-11T12:12:41.226Z,101309.22
2023-04-11T12:15:12.526Z,101307.53
2023-04-11T12:17:40.230Z,101300.66
2023-04-11T12:20:08.434Z,101305.09
2023-04-11T12:22:35.324Z,101300.81
2023-04-11T12:25:05.949Z,101309.38
2023-04-11T12:27:35.226Z,101307.59
2023-04-11T12:30:02.059Z,101313.69
2023-04-11T12:32:28.703Z,101303.31
2023-04-11T12:34:55.507Z,101304.13
2023-04-11T12:37:22.331Z,101318.84
2023-04-11T12:39:48.876Z,101310.22
2023-04-11T12:42:18.661Z,101319.78
2023-04-11T12:44:47.925Z,101316.25
2023-04-11T12:47:14.572Z,101313.72
2023-04-11T12:49:41.355Z,101321.53
2023-04-11T12:52:09.214Z,101321.47
2023-04-11T12:54:36.316Z,101328.34
2023-04-11T12:57:03.617Z,101324.97
2023-04-11T12:59:32.339Z,101327.50
2023-04-11T13:01:59.324Z,101320.59
2023-04-11T13:04:26.188Z,101322.34
2023-04-11T13:06:53.336Z,101324.06
2023-04-11T13:09:19.908Z,101331.00
2023-04-11T13:11:46.745Z,101324.06
2023-04-11T13:14:13.333Z,101337.97
2023-04-11T13:16:39.932Z,101323.25
2023-04-11T13:19:06.675Z,101325.91
2023-04-11T13:21:33.436Z,101322.41
2023-04-11T13:24:00.028Z,101331.91
2023-04-11T13:26:26.659Z,101338.81
2023-04-11T13:28:53.196Z,101316.38
2023-04-11T13:31:19.713Z,101322.44
2023-04-11T13:33:48.039Z,101326.72
2023-04-11T13:36:14.707Z,101330.97
2023-04-11T13:38:41.353Z,101330.03
2023-04-11T13:41:07.969Z,101318.94
2023-04-11T13:43:37.443Z,101326.63
2023-04-11T13:46:04.402Z,101335.22
2023-04-11T13:48:31.224Z,101327.47
2023-04-11T13:50:57.787Z,101335.28
2023-04-11T13:53:24.526Z,101323.22
2023-04-11T13:55:51.393Z,101310.28
2023-04-11T13:58:18.110Z,101318.13
2023-04-11T14:00:47.686Z,101320.72
2023-04-11T14:03:14.685Z,101322.41
2023-04-11T14:05:41.405Z,101317.19
2023-04-11T14:08:08.252Z,101321.56
2023-04-11T14:10:34.883Z,101318.09
2023-04-11T14:13:02.497Z,101318.03
2023-04-11T14:15:29.615Z,101308.63
2023-04-11T14:17:56.332Z,101312.09
2023-04-11T14:20:24.398Z,101312.94
2023-04-11T14:22:51.504Z,101304.28
2023-04-11T14:25:18.169Z,101299.09
2023-04-11T14:27:45.032Z,101298.22
2023-04-11T14:30:15.677Z,101303.38
2023-04-11T14:32:42.275Z,101308.53
2023-04-11T14:35:09.789Z,101304.28
2023-04-11T14:37:36.797Z,101290.47
2023-04-11T14:40:10.223Z,101290.47
2023-04-11T14:42:39.639Z,101297.38
2023-04-11T14:45:07.022Z,101288.75
2023-04-11T14:47:33.703Z,101294.72
2023-04-11T14:50:00.908Z,101290.44
2023-04-11T14:52:28.655Z,101292.22
2023-04-11T14:54:55.875Z,101283.59
2023-04-11T14:57:22.790Z,101280.97
2023-04-11T14:59:50.101Z,101274.94
2023-04-11T15:02:16.835Z,101278.38
2023-04-11T15:04:43.481Z,101281.81
2023-04-11T15:07:10.063Z,101272.34
2023-04-11T15:09:36.653Z,101273.19
2023-04-11T15:12:03.215Z,101268.88
2023-04-11T15:14:29.704Z,101280.91
2023-04-11T15:16:56.896Z,101256.78
2023-04-11T15:19:23.711Z,101264.50
2023-04-11T15:21:50.298Z,101272.22
2023-04-11T15:24:17.047Z,101266.16
2023-04-11T15:26:47.194Z,101270.50
2023-04-11T15:29:15.774Z,101254.13
2023-04-11T15:31:42.435Z,101249.75
2023-04-11T15:34:09.057Z,101257.53
2023-04-11T15:36:38.453Z,101251.44
2023-04-11T15:39:05.377Z,101252.34
2023-04-11T15:41:34.803Z,101245.44
2023-04-11T15:44:01.568Z,101235.06
2023-04-11T15:46:29.314Z,101230.75
2023-04-11T15:48:55.891Z,101235.03
2023-04-11T15:51:22.436Z,101231.47
2023-04-11T15:53:48.988Z,101231.50
2023-04-11T15:56:15.514Z,101224.63
2023-04-11T15:58:42.393Z,101230.75
2023-04-11T16:01:25.577Z,101231.63
2023-04-11T16:03:54.275Z,101239.38
2023-04-11T16:06:22.483Z,101215.19
2023-04-11T16:08:49.240Z,101222.03
2023-04-11T16:11:15.825Z,101230.63
2023-04-11T16:13:44.072Z,101215.91
2023-04-11T16:16:11.475Z,101202.94
2023-04-11T16:18:38.077Z,101218.53
2023-04-11T16:21:13.407Z,101207.31
2023-04-11T16:23:40.050Z,101212.53
2023-04-11T16:26:06.986Z,101205.66
2023-04-11T16:28:33.579Z,101195.25
2023-04-11T16:31:00.448Z,101194.38
2023-04-11T16:33:27.124Z,101194.38
2023-04-11T16:35:53.651Z,101196.94
2023-04-11T16:38:20.196Z,101180.53
2023-04-11T16:40:46.747Z,101178.78
2023-04-11T16:43:13.277Z,101182.22
2023-04-11T16:45:40.529Z,101172.63
2023-04-11T16:48:08.161Z,101179.47
2023-04-11T16:50:35.268Z,101173.50
2023-04-11T16:53:02.027Z,101170.91
2023-04-11T16:55:28.664Z,101180.38
2023-04-11T16:57:55.861Z,101169.06
2023-04-11T17:00:23.905Z,101164.69
2023-04-11T17:02:50.862Z,101163.81
2023-04-11T17:05:19.135Z,101153.47
2023-04-11T17:10:21.759Z,101155.13
2023-04-11T17:12:48.280Z,101150.78
2023-04-11T17:15:14.818Z,101145.50
2023-04-11T17:17:41.779Z,101133.34
2023-04-11T17:20:10.224Z,101147.91
2023-04-11T17:22:36.949Z,101153.88
2023-04-11T17:25:04.127Z,101139.13
2023-04-11T17:27:30.763Z,101147.72
2023-04-11T17:29:57.349Z,101131.22
2023-04-11T17:32:24.110Z,101129.50
2023-04-11T17:34:51.026Z,101114.69
2023-04-11T17:37:17.553Z,101134.47
2023-04-11T17:39:44.171Z,101126.75
2023-04-11T17:42:13.687Z,101128.38
2023-04-11T17:44:40.795Z,101121.41
2023-04-11T17:47:07.427Z,101112.72
2023-04-11T17:49:34.024Z,101110.06
2023-04-11T17:52:00.578Z,101118.63
2023-04-11T17:54:27.484Z,101101.28
2023-04-11T17:56:54.267Z,101101.31
2023-04-11T17:59:21.301Z,101102.25
2023-04-11T18:01:48.013Z,101104.78
2023-04-11T18:04:15.414Z,101101.28
2023-04-11T18:06:42.581Z,101090.75
2023-04-11T18:11:49.594Z,101102.56
2023-04-11T18:14:16.111Z,101102.63
2023-04-11T18:16:42.684Z,101111.16
2023-04-11T18:19:09.355Z,101098.22
2023-04-11T18:21:35.997Z,101084.47
2023-04-11T18:24:04.058Z,101085.31
2023-04-11T18:26:31.601Z,101096.41
2023-04-11T18:29:00.364Z,101086.84
2023-04-11T18:31:27.249Z,101077.25
2023-04-11T18:33:54.259Z,101082.25
2023-04-11T18:36:21.862Z,101078.75
2023-04-11T18:38:49.258Z,101072.63
2023-04-11T18:41:17.498Z,101068.16
2023-04-11T18:43:44.921Z,101054.31
2023-04-11T18:46:11.551Z,101062.09
2023-04-11T18:48:38.211Z,101061.22
2023-04-11T18:51:05.168Z,101061.19
2023-04-11T18:53:32.454Z,101062.00
2023-04-11T18:56:03.056Z,101064.56
2023-04-11T18:58:31.735Z,101053.44
2023-04-11T19:01:03.605Z,101056.00
2023-04-11T19:03:36.712Z,101045.63
2023-04-11T19:06:07.544Z,101041.31
2023-04-11T19:08:34.143Z,101031.78
2023-04-11T19:11:01.288Z,101039.50
2023-04-11T19:13:27.857Z,101032.50
2023-04-11T19:15:54.867Z,101029.84
2023-04-11T19:18:21.517Z,101034.09
2023-04-11T19:20:48.486Z,101030.66
2023-04-11T19:23:15.054Z,101030.66
2023-04-11T19:25:41.666Z,101026.38
2023-04-11T19:28:16.525Z,100973.66
2023-04-11T19:30:43.550Z,100995.28
2023-04-11T19:33:10.490Z,101002.19
2023-04-11T19:35:38.149Z,100979.72
2023-04-11T19:38:18.365Z,100959.91
2023-04-11T19:40:48.459Z,101016.19
2023-04-11T19:43:17.203Z,100983.38
2023-04-11T19:45:44.246Z,101008.69
2023-04-11T19:48:11.693Z,100987.94
2023-04-11T19:50:38.490Z,101002.75
2023-04-11T19:53:05.342Z,100972.41
2023-04-11T19:55:32.047Z,100996.72
2023-04-11T19:57:58.923Z,100994.16
2023-04-11T20:00:27.270Z,100974.47
2023-04-11T20:02:55.068Z,100966.75
2023-04-11T20:05:22.208Z,100956.22
2023-04-11T20:07:48.956Z,100931.97
2023-04-11T20:10:17.209Z,100964.88
2023-04-11T20:12:44.192Z,100957.19
2023-04-11T20:15:11.435Z,100939.09
2023-04-11T20:17:38.308Z,100918.41
2023-04-11T20:20:06.078Z,100930.63
2023-04-11T20:22:33.211Z,100889.16
2023-04-11T20:24:59.833Z,100872.88
2023-04-11T20:27:28.172Z,100915.41
2023-04-11T20:29:56.707Z,100883.50
2023-04-11T20:32:23.636Z,100873.16
2023-04-11T20:34:50.562Z,100898.25
2023-04-11T20:37:18.889Z,100893.97
2023-04-11T20:39:45.857Z,100855.13
2023-04-11T20:42:12.446Z,100870.81
2023-04-11T20:44:39.061Z,100843.16
2023-04-11T20:47:05.641Z,100861.53
2023-04-11T20:49:32.339Z,100851.13
2023-04-11T20:52:00.063Z,100824.47
2023-04-11T20:54:27.618Z,100832.38
2023-04-11T20:56:55.902Z,100827.16
2023-04-11T20:59:22.636Z,100810.00
2023-04-11T21:01:49.386Z,100788.41
2023-04-11T21:04:29.563Z,100806.56
2023-04-11T21:09:50.769Z,100766.81
2023-04-11T21:12:24.793Z,100766.06
2023-04-11T21:15:01.567Z,100780.75
2023-04-11T21:17:55.334Z,100764.47
2023-04-11T21:26:31.604Z,100761.16
2023-04-11T21:29:18.479Z,100780.19
2023-04-11T21:32:02.722Z,100770.72
2023-04-11T21:34:29.401Z,100759.50
2023-04-11T21:36:57.165Z,100725.06
2023-04-11T21:39:26.686Z,100721.63
2023-04-11T21:41:53.340Z,100748.47
2023-04-11T21:44:20.086Z,100726.03
2023-04-11T21:46:46.806Z,100721.00
2023-04-11T21:49:15.604Z,100732.16
2023-04-11T21:51:47.792Z,100733.94
2023-04-11T21:54:31.939Z,100733.91
2023-04-11T21:56:58.585Z,100717.53
2023-04-11T21:59:25.554Z,100703.75
2023-04-11T22:01:52.578Z,100708.16
2023-04-11T22:04:23.206Z,100716.78
2023-04-11T22:06:50.146Z,100728.06
2023-04-11T22:09:24.952Z,100714.19
2023-04-11T22:11:51.855Z,100709.03
2023-04-11T22:14:21.798Z,100723.69
2023-04-11T22:16:51.298Z,100715.16
2023-04-11T22:19:30.916Z,100696.19
2023-04-11T22:22:10.776Z,100706.66
2023-04-11T22:24:38.426Z,100681.63
2023-04-11T22:27:10.310Z,100657.56
2023-04-11T22:29:36.916Z,100681.72
2023-04-11T22:32:05.306Z,100661.00
2023-04-11T22:34:34.381Z,100647.19
2023-04-11T22:37:02.590Z,100684.31
2023-04-11T22:39:29.394Z,100666.16
2023-04-11T22:41:56.220Z,100646.34
2023-04-11T22:44:23.080Z,100646.34
2023-04-11T22:47:01.192Z,100660.13
2023-04-11T22:49:27.842Z,100612.78
2023-04-11T22:51:59.287Z,100623.91
2023-04-11T22:54:27.264Z,100613.59
2023-04-11T22:56:56.777Z,100601.50
2023-04-11T22:59:25.834Z,100600.66
2023-04-11T23:01:52.724Z,100608.34
2023-04-11T23:04:20.699Z,100634.22
2023-04-11T23:06:50.776Z,100599.81
2023-04-11T23:09:21.001Z,100598.03
2023-04-11T23:11:48.907Z,100575.59
2023-04-11T23:14:29.882Z,100566.09
2023-04-11T23:16:57.161Z,100584.97
2023-04-11T23:19:27.270Z,100586.75
2023-04-11T23:21:55.804Z,100585.16
2023-04-11T23:24:24.962Z,100596.28
2023-04-11T23:27:01.540Z,100547.19
2023-04-11T23:29:28.454Z,100566.22
2023-04-11T23:31:55.120Z,100538.59
2023-04-11T23:34:22.226Z,100542.88
2023-04-11T23:36:51.077Z,100542.91
2023-04-11T23:39:17.910Z,100527.41
2023-04-11T23:41:44.989Z,100534.28
2023-04-11T23:44:11.687Z,100530.84
2023-04-11T23:46:41.853Z,100507.56
2023-04-11T23:49:08.673Z,100539.50
2023-04-11T23:51:38.322Z,100497.25
2023-04-11T23:54:07.226Z,100526.56
2023-04-11T23:56:34.497Z,100523.91
2023-04-11T23:59:01.165Z,100509.31
